Time;durP1;ratioP1;P1;durP2;ratioP2;P2;SDS_P1;SDS_P2;PMS_P1;PMS_P2;Temp;Humidity;BMP_temperature;BMP_pressure;BME280_temperature;BME280_humidity;BME280_pressure;Samples;Min_cycle;Max_cycle;Signal;HPM_P1;HPM_P2
2022/04/15 00:00:58;;;;;;;25.13;5.17;;;;;;;9.00;39.11;99228.72;4969485;28;20400;-74
2022/04/15 00:03:30;;;;;;;21.85;4.72;;;;;;;9.03;39.11;99224.63;4953281;28;20318;-74
2022/04/15 00:05:56;;;;;;;19.48;4.18;;;;;;;8.99;39.17;99229.81;4970681;28;20061;-75
2022/04/15 00:08:22;;;;;;;34.58;4.45;;;;;;;9.04;39.05;99226.25;4959329;28;20146;-74
2022/04/15 00:10:49;;;;;;;22.25;3.65;;;;;;;9.04;38.97;99229.81;4969982;28;20500;-75
2022/04/15 00:13:19;;;;;;;13.80;3.85;;;;;;;9.03;38.94;99230.91;4971334;28;20138;-73
2022/04/15 00:15:46;;;;;;;18.55;3.85;;;;;;;9.00;38.93;99233.34;4970254;28;20125;-74
2022/04/15 00:18:14;;;;;;;21.67;5.43;;;;;;;8.97;38.86;99231.19;4949009;28;20524;-74
2022/04/15 00:20:40;;;;;;;16.52;3.60;;;;;;;8.92;38.98;99221.13;4954274;28;20086;-74
2022/04/15 00:23:07;;;;;;;19.67;3.83;;;;;;;8.88;38.78;99222.78;4958092;28;20059;-74
2022/04/15 00:25:33;;;;;;;13.70;3.88;;;;;;;8.86;38.66;99228.50;4969117;28;20066;-73
2022/04/15 00:27:59;;;;;;;16.80;3.60;;;;;;;8.86;38.67;99220.31;4963174;28;20047;-74
2022/04/15 00:30:25;;;;;;;20.85;3.83;;;;;;;8.88;38.53;99214.59;4939267;28;20083;-74
2022/04/15 00:32:52;;;;;;;17.10;3.30;;;;;;;8.87;38.44;99210.22;4973761;28;20153;-74
2022/04/15 00:35:18;;;;;;;13.73;3.08;;;;;;;8.93;38.51;99209.94;4970755;28;20114;-75
2022/04/15 00:37:46;;;;;;;23.52;4.78;;;;;;;8.90;38.51;99207.78;4970987;28;20054;-75
2022/04/15 00:40:13;;;;;;;14.48;3.05;;;;;;;8.94;38.67;99210.75;4972631;28;20088;-74
2022/04/15 00:42:40;;;;;;;22.02;3.47;;;;;;;8.93;38.37;99212.66;4954010;28;20046;-74
2022/04/15 00:45:09;;;;;;;23.77;4.05;;;;;;;8.92;38.35;99202.84;4970344;28;20055;-74
2022/04/15 00:47:47;;;;;;;20.80;3.40;;;;;;;8.97;38.34;99212.91;4970265;28;20062;-74
2022/04/15 00:50:16;;;;;;;19.48;3.40;;;;;;;8.96;38.46;99208.53;4954001;29;20069;-73
2022/04/15 00:52:45;;;;;;;19.42;3.25;;;;;;;8.90;38.41;99210.50;4973082;28;20057;-67
2022/04/15 00:55:12;;;;;;;14.45;3.85;;;;;;;8.91;38.55;99211.31;4973486;28;20059;-68
2022/04/15 00:57:40;;;;;;;15.77;3.33;;;;;;;8.90;38.53;99215.97;4950832;28;20431;-69
2022/04/15 01:00:08;;;;;;;26.27;3.58;;;;;;;8.89;38.39;99210.78;4946087;28;20408;-69
2022/04/15 01:02:36;;;;;;;22.20;3.50;;;;;;;8.89;38.51;99211.56;4954274;28;20065;-70
2022/04/15 01:05:04;;;;;;;;;;;;;;;8.88;38.50;99212.66;4971710;28;20534;-70
2022/04/15 01:07:34;;;;;;;18.35;3.95;;;;;;;8.88;38.59;99218.13;4974108;28;20049;-69
2022/04/15 01:10:03;;;;;;;17.33;3.50;;;;;;;8.89;38.77;99218.94;4973677;28;20051;-68
2022/04/15 01:12:31;;;;;;;19.20;3.47;;;;;;;8.87;38.71;99216.50;4972757;28;20050;-69
2022/04/15 01:14:59;;;;;;;22.40;3.90;;;;;;;8.91;38.77;99214.84;4954675;28;20511;-68
2022/04/15 01:17:27;;;;;;;14.10;3.60;;;;;;;8.92;38.68;99212.94;4973965;28;20519;-68
2022/04/15 01:19:54;;;;;;;24.10;3.78;;;;;;;8.95;38.54;99209.66;4973966;28;20055;-67
2022/04/15 01:22:24;;;;;;;20.43;4.43;;;;;;;8.94;38.39;99213.47;4954813;28;20530;-68
2022/04/15 01:24:50;;;;;;;24.08;4.40;;;;;;;8.87;38.59;99191.94;4972355;28;20055;-69
2022/04/15 01:27:22;;;;;;;28.48;4.10;;;;;;;8.89;38.76;99200.66;4974113;28;20061;-69
2022/04/15 01:29:49;;;;;;;22.80;4.03;;;;;;;8.97;38.51;99206.66;4973041;28;20561;-68
2022/04/15 01:32:14;;;;;;;19.90;4.25;;;;;;;8.95;38.31;99198.75;4969437;28;20050;-68
2022/04/15 01:34:40;;;;;;;20.65;4.47;;;;;;;8.98;38.27;99200.09;4973460;28;20146;-69
2022/04/15 01:37:06;;;;;;;16.02;4.15;;;;;;;8.94;38.56;99199.84;4937251;29;20095;-68
2022/04/15 01:39:36;;;;;;;14.52;3.83;;;;;;;8.93;38.68;99201.75;4946769;28;20062;-67
2022/04/15 01:42:04;;;;;;;19.85;3.97;;;;;;;8.94;38.59;99202.56;4953506;28;20075;-68
2022/04/15 01:44:30;;;;;;;14.60;4.60;;;;;;;8.94;38.22;99194.38;4956340;28;20461;-68
2022/04/15 01:46:56;;;;;;;16.77;4.05;;;;;;;8.95;38.31;99190.56;4972733;28;20515;-66
2022/04/15 01:49:23;;;;;;;20.75;4.45;;;;;;;8.97;38.36;99199.28;4954498;28;20125;-68
2022/04/15 01:51:49;;;;;;;13.48;3.92;;;;;;;8.99;38.39;99190.81;4960171;28;20150;-68
2022/04/15 01:54:15;;;;;;;17.88;6.00;;;;;;;9.00;38.36;99193.28;4967977;28;20051;-68
2022/04/15 01:56:41;;;;;;;28.88;5.18;;;;;;;8.96;38.13;99181.28;4971250;28;20081;-67
2022/04/15 01:59:09;;;;;;;21.70;4.00;;;;;;;8.90;38.40;99179.69;4954318;28;20055;-67
2022/04/15 02:01:36;;;;;;;22.65;4.43;;;;;;;8.96;38.43;99186.72;4935977;28;20150;-66
2022/04/15 02:04:02;;;;;;;17.33;4.47;;;;;;;8.93;38.48;99177.22;4973697;28;20050;-68
2022/04/15 02:06:28;;;;;;;22.43;5.63;;;;;;;8.92;38.60;99191.13;4972781;28;20491;-68
2022/04/15 02:08:55;;;;;;;24.40;4.05;;;;;;;8.91;38.59;99192.22;4938789;28;20450;-68
2022/04/15 02:11:21;;;;;;;23.77;4.47;;;;;;;8.91;38.62;99190.31;4959949;28;20054;-68
2022/04/15 02:13:47;;;;;;;29.23;4.22;;;;;;;8.88;38.82;99185.41;4956345;28;20113;-68
2022/04/15 02:16:14;;;;;;;20.48;4.90;;;;;;;8.90;38.80;99188.69;4971579;28;20129;-67
2022/04/15 02:18:40;;;;;;;23.42;5.32;;;;;;;8.92;38.90;99181.03;4970249;28;20133;-69
2022/04/15 02:21:06;;;;;;;20.88;4.70;;;;;;;8.92;38.75;99183.78;4972731;28;20153;-68
2022/04/15 02:23:32;;;;;;;22.60;4.60;;;;;;;8.94;39.00;99178.03;4971256;28;20549;-68
2022/04/15 02:25:59;;;;;;;31.70;4.45;;;;;;;8.94;38.94;99180.75;4971065;28;20211;-68
2022/04/15 02:28:25;;;;;;;26.33;5.63;;;;;;;8.97;39.06;99179.38;4970882;28;20086;-69
2022/04/15 02:30:52;;;;;;;31.05;5.45;;;;;;;8.94;39.38;99184.31;4972690;28;20106;-68
2022/04/15 02:33:19;;;;;;;23.45;5.85;;;;;;;8.92;39.32;99166.59;4972272;28;20059;-67
2022/04/15 02:35:46;;;;;;;23.85;6.10;;;;;;;8.92;39.58;99186.50;4966988;28;20059;-68
2022/04/15 02:38:12;;;;;;;35.67;5.57;;;;;;;8.88;39.78;99188.13;4969333;28;20094;-68
2022/04/15 02:40:39;;;;;;;27.25;5.90;;;;;;;8.90;39.65;99190.59;4953933;28;20059;-68
2022/04/15 02:43:06;;;;;;;24.50;5.32;;;;;;;8.88;39.69;99177.22;4956526;28;20106;-69
2022/04/15 02:45:33;;;;;;;25.38;5.63;;;;;;;8.89;39.41;99184.31;4953074;28;20069;-69
2022/04/15 02:47:59;;;;;;;21.88;4.90;;;;;;;8.94;39.64;99189.75;4972556;28;20088;-67
2022/04/15 02:50:27;;;;;;;37.10;6.57;;;;;;;8.94;39.70;99184.31;4953440;28;20114;-68
2022/04/15 02:52:54;;;;;;;30.50;5.68;;;;;;;8.94;39.50;99186.19;4972014;28;20062;-68
2022/04/15 02:55:20;;;;;;;22.00;4.55;;;;;;;8.92;39.60;99186.50;4964848;28;20459;-69
2022/04/15 02:57:46;;;;;;;41.35;6.00;;;;;;;8.96;39.53;99191.38;4972904;28;20063;-68
2022/04/15 03:00:14;;;;;;;24.00;5.00;;;;;;;9.00;39.50;99190.56;4972366;28;20480;-69
2022/04/15 03:02:40;;;;;;;36.80;5.10;;;;;;;9.01;39.45;99186.72;4953792;28;20145;-69
2022/04/15 03:05:09;;;;;;;21.35;4.47;;;;;;;9.01;39.43;99192.19;4969898;28;20070;-69
2022/04/15 03:07:35;;;;;;;26.52;4.78;;;;;;;8.97;39.37;99188.38;4970757;28;20059;-68
2022/04/15 03:10:02;;;;;;;32.38;5.05;;;;;;;8.94;39.55;99184.31;4971958;28;20175;-68
2022/04/15 03:12:33;;;;;;;27.90;4.50;;;;;;;8.93;39.46;99190.03;4969684;28;20141;-69
2022/04/15 03:14:59;;;;;;;24.63;5.30;;;;;;;8.92;39.42;99189.22;4968118;28;20047;-68
2022/04/15 03:17:25;;;;;;;29.77;6.22;;;;;;;8.95;39.46;99182.38;4951692;28;20055;-68
2022/04/15 03:19:52;;;;;;;26.27;5.47;;;;;;;8.95;39.58;99185.09;4972343;28;20066;-69
2022/04/15 03:22:19;;;;;;;29.83;6.10;;;;;;;8.94;39.70;99181.56;4969395;28;20057;-73
2022/04/15 03:24:48;;;;;;;23.63;5.65;;;;;;;8.94;39.70;99189.75;4971540;28;20105;-74
2022/04/15 03:27:14;;;;;;;29.83;7.05;;;;;;;8.93;39.69;99182.69;4972442;28;20069;-74
2022/04/15 03:29:43;;;;;;;21.05;5.65;;;;;;;9.00;39.66;99181.53;4972013;28;20061;-74
2022/04/15 03:32:09;;;;;;;34.13;6.55;;;;;;;9.02;39.64;99182.06;4969150;28;20483;-73
2022/04/15 03:34:39;;;;;;;39.15;5.90;;;;;;;9.02;39.75;99188.38;4971750;28;20055;-74
2022/04/15 03:37:05;;;;;;;31.60;6.00;;;;;;;9.08;39.68;99176.31;4972344;28;20070;-73
2022/04/15 03:39:31;;;;;;;25.65;6.10;;;;;;;9.22;39.54;99187.47;4970776;28;20054;-72
2022/04/15 03:41:58;;;;;;;28.08;6.25;;;;;;;9.35;39.31;99187.91;4967507;28;20058;-73
2022/04/15 03:44:24;;;;;;;30.75;6.00;;;;;;;9.42;39.26;99191.16;4962415;28;20149;-72
2022/04/15 03:46:51;;;;;;;31.38;6.47;;;;;;;9.42;39.33;99191.16;4952965;28;20051;-72
2022/04/15 03:49:17;;;;;;;27.80;7.37;;;;;;;9.44;39.29;99193.59;4965528;28;20054;-72
2022/04/15 03:51:43;;;;;;;36.35;7.07;;;;;;;9.41;39.51;99186.81;4970005;28;20059;-72
2022/04/15 03:54:09;;;;;;;29.35;6.00;;;;;;;9.38;39.83;99181.09;4969863;28;20057;-73
2022/04/15 03:56:36;;;;;;;34.13;8.43;;;;;;;9.39;39.64;99178.09;4960967;28;20067;-73
2022/04/15 03:59:03;;;;;;;45.00;7.10;;;;;;;9.44;39.49;99174.50;4964351;28;20053;-73
2022/04/15 04:01:29;;;;;;;24.08;6.53;;;;;;;9.44;39.79;99180.78;4966912;28;20054;-73
2022/04/15 04:03:56;;;;;;;29.90;7.20;;;;;;;9.49;39.73;99180.72;4971725;28;20066;-73
2022/04/15 04:06:22;;;;;;;27.45;7.13;;;;;;;9.53;39.69;99177.47;4959509;28;20152;-72
2022/04/15 04:08:51;;;;;;;27.15;7.68;;;;;;;9.55;39.55;99181.53;4973857;28;20527;-73
2022/04/15 04:11:19;;;;;;;35.80;7.50;;;;;;;9.58;39.70;99182.88;4976853;28;20066;-73
2022/04/15 04:13:46;;;;;;;32.40;6.57;;;;;;;9.56;39.49;99177.69;4976534;28;20527;-74
2022/04/15 04:16:12;;;;;;;27.75;7.95;;;;;;;9.64;39.28;99173.53;4976122;28;20055;-74
2022/04/15 04:18:39;;;;;;;25.10;7.07;;;;;;;9.69;39.01;99184.44;4973854;28;20466;-72
2022/04/15 04:21:05;;;;;;;47.30;6.95;;;;;;;9.74;38.97;99184.41;4975957;28;20082;-73
2022/04/15 04:23:31;;;;;;;30.50;7.25;;;;;;;9.78;38.95;99177.25;4954440;29;20582;-73
2022/04/15 04:25:57;;;;;;;48.78;8.50;;;;;;;9.87;38.92;99176.66;4965811;28;20121;-73
2022/04/15 04:28:23;;;;;;;48.88;8.32;;;;;;;9.89;38.76;99175.25;4974567;28;20063;-73
2022/04/15 04:30:50;;;;;;;32.70;7.95;;;;;;;9.88;39.07;99179.09;4969006;28;20059;-73
2022/04/15 04:33:17;;;;;;;34.22;6.85;;;;;;;9.77;38.44;99163.91;4943362;28;20150;-74
2022/04/15 04:35:43;;;;;;;28.77;6.40;;;;;;;9.74;38.00;99153.53;4959139;28;20054;-74
2022/04/15 04:38:09;;;;;;;27.08;5.68;;;;;;;9.80;37.87;99163.34;4976706;28;20058;-73
2022/04/15 04:40:37;;;;;;;18.80;5.28;;;;;;;9.81;37.37;99164.97;4977373;28;20157;-74
2022/04/15 04:43:04;;;;;;;19.08;5.07;;;;;;;9.88;37.46;99168.16;4976237;28;20146;-73
2022/04/15 04:45:32;;;;;;;24.42;5.38;;;;;;;9.91;37.35;99164.91;4957921;28;20050;-72
2022/04/15 04:48:00;;;;;;;30.23;5.38;;;;;;;9.96;37.06;99161.28;4944735;28;20047;-74
2022/04/15 04:50:28;;;;;;;28.38;4.43;;;;;;;10.02;36.79;99160.16;4944371;28;20121;-73
2022/04/15 04:52:54;;;;;;;27.95;4.18;;;;;;;10.11;36.44;99164.97;4951517;28;20586;-73
2022/04/15 04:55:20;;;;;;;35.75;5.50;;;;;;;10.08;37.00;99169.91;4974295;28;20081;-73
2022/04/15 04:57:46;;;;;;;31.60;5.65;;;;;;;10.12;37.64;99167.44;4959940;28;20059;-72
2022/04/15 05:00:15;;;;;;;47.50;7.22;;;;;;;10.11;38.06;99170.44;4977666;28;20055;-73
2022/04/15 05:02:43;;;;;;;44.85;6.55;;;;;;;10.22;38.10;99161.06;4949045;28;20063;-75
2022/04/15 05:05:09;;;;;;;32.17;6.35;;;;;;;10.16;38.60;99179.41;4972441;28;20150;-73
2022/04/15 05:07:37;;;;;;;42.45;7.20;;;;;;;10.06;38.64;99155.75;4977646;28;20147;-73
2022/04/15 05:10:04;;;;;;;36.70;7.82;;;;;;;10.10;38.87;99175.09;4960162;28;20071;-73
2022/04/15 05:12:30;;;;;;;40.10;7.15;;;;;;;10.10;39.03;99166.91;4975660;28;20047;-73
2022/04/15 05:14:56;;;;;;;55.17;7.75;;;;;;;10.10;39.19;99168.81;4976660;28;20054;-72
2022/04/15 05:17:23;;;;;;;38.05;7.00;;;;;;;10.15;38.92;99168.78;4968249;28;20055;-71
2022/04/15 05:19:49;;;;;;;44.97;9.00;;;;;;;10.14;39.05;99169.88;4971804;28;20058;-73
2022/04/15 05:22:15;;;;;;;33.63;7.97;;;;;;;10.05;39.35;99167.75;4966944;28;20621;-72
2022/04/15 05:24:42;;;;;;;57.15;15.07;;;;;;;9.98;39.35;99167.25;4972865;28;20050;-74
2022/04/15 05:27:09;;;;;;;54.78;11.40;;;;;;;10.00;39.44;99158.81;4959848;28;20065;-71
2022/04/15 05:29:35;;;;;;;46.20;11.23;;;;;;;10.10;38.89;99161.44;4971692;28;20189;-71
2022/04/15 05:32:03;;;;;;;44.00;11.20;;;;;;;10.00;38.87;99161.53;4969829;28;20482;-73
2022/04/15 05:34:29;;;;;;;33.40;8.85;;;;;;;10.00;38.73;99170.56;4972305;28;20050;-71
2022/04/15 05:36:55;;;;;;;28.92;6.65;;;;;;;10.05;38.66;99170.50;4973309;28;20059;-67
2022/04/15 05:39:21;;;;;;;27.55;7.10;;;;;;;10.01;38.44;99172.19;4972674;28;20049;-67
2022/04/15 05:41:48;;;;;;;30.05;6.43;;;;;;;9.97;38.49;99165.63;4971312;28;20073;-66
2022/04/15 05:44:16;;;;;;;37.72;7.35;;;;;;;9.87;38.37;99168.47;4973961;28;20059;-67
2022/04/15 05:46:43;;;;;;;33.67;7.40;;;;;;;9.97;38.30;99171.09;4973671;28;20054;-66
2022/04/15 05:49:13;;;;;;;44.53;8.00;;;;;;;9.93;38.61;99164.59;4954383;28;20586;-68
2022/04/15 05:51:42;;;;;;;36.65;8.43;;;;;;;9.92;38.91;99169.25;4973733;28;20051;-67
2022/04/15 05:54:10;;;;;;;35.17;7.40;;;;;;;9.78;39.39;99169.06;4937200;29;20508;-67
2022/04/15 05:56:36;;;;;;;34.58;9.63;;;;;;;9.90;39.42;99163.22;4947562;28;20066;-68
2022/04/15 05:59:04;;;;;;;36.35;9.75;;;;;;;9.91;39.65;99167.63;4967817;28;20482;-67
2022/04/15 06:01:29;;;;;;;37.13;7.97;;;;;;;9.97;39.68;99162.09;4972446;28;20059;-68
2022/04/15 06:03:56;;;;;;;31.42;8.40;;;;;;;10.08;39.45;99169.91;4973267;28;20059;-66
2022/04/15 06:06:22;;;;;;;41.08;13.07;;;;;;;9.97;39.45;99135.59;4955952;28;20324;-68
2022/04/15 06:08:48;;;;;;;41.85;11.70;;;;;;;10.20;39.56;99164.06;4953527;28;20141;-68
2022/04/15 06:11:14;;;;;;;32.28;9.52;;;;;;;10.12;39.82;99172.91;4939601;28;20113;-66
2022/04/15 06:13:47;;;;;;;34.92;9.32;;;;;;;10.06;40.16;99161.19;4952983;28;20419;-68
2022/04/15 06:16:16;;;;;;;39.60;10.60;;;;;;;10.07;40.55;99172.97;4957100;28;20077;-67
2022/04/15 06:18:43;;;;;;;40.92;10.82;;;;;;;10.07;40.71;99168.28;4951187;28;20140;-67
2022/04/15 06:21:09;;;;;;;44.30;9.93;;;;;;;10.13;40.36;99160.88;4971473;28;20055;-66
2022/04/15 06:23:35;;;;;;;38.28;8.63;;;;;;;10.21;40.38;99162.16;4972410;28;20482;-67
2022/04/15 06:26:01;;;;;;;31.95;8.57;;;;;;;10.26;40.24;99156.63;4971728;28;20109;-68
2022/04/15 06:28:27;;;;;;;28.77;7.60;;;;;;;10.36;40.01;99169.38;4972394;28;20054;-67
2022/04/15 06:30:57;;;;;;;26.00;7.00;;;;;;;10.50;39.93;99170.34;4954825;28;20145;-66
2022/04/15 06:33:24;;;;;;;27.55;6.85;;;;;;;10.47;40.11;99175.63;4969915;28;20063;-67
2022/04/15 06:35:52;;;;;;;50.27;7.67;;;;;;;10.54;39.87;99159.66;4954956;28;20058;-68
2022/04/15 06:38:18;;;;;;;36.83;7.25;;;;;;;10.46;39.87;99166.59;4955107;28;20085;-65
2022/04/15 06:40:45;;;;;;;21.42;5.80;;;;;;;10.41;39.56;99163.09;4954683;28;20065;-66
2022/04/15 06:43:11;;;;;;;20.00;6.78;;;;;;;10.45;39.42;99167.69;4946421;28;20082;-66
2022/04/15 06:45:37;;;;;;;31.60;6.40;;;;;;;10.31;40.02;99155.78;4970328;28;20519;-67
2022/04/15 06:48:04;;;;;;;20.45;6.78;;;;;;;10.52;40.01;99156.41;4962116;28;20620;-67
2022/04/15 06:50:31;;;;;;;23.47;5.47;;;;;;;10.61;39.66;99141.03;4961215;28;20051;-67
2022/04/15 06:52:57;;;;;;;18.13;5.18;;;;;;;10.64;39.31;99151.38;4971262;28;20675;-66
2022/04/15 06:55:23;;;;;;;15.95;4.30;;;;;;;10.71;38.70;99144.72;4969521;28;20051;-65
2022/04/15 06:57:50;;;;;;;29.10;6.13;;;;;;;10.75;38.61;99145.75;4967199;28;20054;-66
2022/04/15 07:00:16;;;;;;;20.38;4.63;;;;;;;10.74;38.32;99144.13;4971696;28;20145;-66
2022/04/15 07:02:43;;;;;;;27.95;4.65;;;;;;;10.80;38.14;99142.16;4970901;28;20054;-69
2022/04/15 07:05:10;;;;;;;25.75;5.10;;;;;;;10.68;37.91;99124.22;4970537;28;20050;-78
2022/04/15 07:07:38;;;;;;;22.38;4.68;;;;;;;10.71;37.93;99131.03;4950332;28;20056;-72
2022/04/15 07:10:06;;;;;;;18.52;4.82;;;;;;;10.66;37.65;99118.25;4969150;28;20063;-72
2022/04/15 07:12:32;;;;;;;18.80;4.15;;;;;;;10.73;37.46;99137.03;4967527;28;20050;-71
2022/04/15 07:14:58;;;;;;;27.98;4.50;;;;;;;10.88;37.01;99130.56;4953151;28;20085;-72
2022/04/15 07:17:25;;;;;;;20.88;5.13;;;;;;;10.87;37.03;99116.06;4972620;28;20510;-72
2022/04/15 07:19:51;;;;;;;21.63;4.72;;;;;;;11.03;36.71;99133.13;4972064;28;20072;-73
2022/04/15 07:22:18;;;;;;;14.25;4.22;;;;;;;11.03;36.61;99130.38;4964815;28;20526;-73
2022/04/15 07:24:45;;;;;;;24.80;4.70;;;;;;;11.09;36.44;99127.56;4954727;28;20058;-73
2022/04/15 07:27:11;;;;;;;25.02;7.68;;;;;;;11.11;35.98;99119.88;4950920;28;20610;-72
2022/04/15 07:29:37;;;;;;;21.15;7.75;;;;;;;11.10;35.59;99124.53;4957244;28;20057;-72
2022/04/15 07:32:04;;;;;;;17.48;5.97;;;;;;;11.10;35.63;99124.53;4970400;28;20523;-74
2022/04/15 07:34:30;;;;;;;24.33;4.50;;;;;;;10.98;35.28;99124.16;4971558;28;20138;-73
2022/04/15 07:36:59;;;;;;;15.15;4.22;;;;;;;11.02;35.60;99123.28;4953672;28;20093;-72
2022/04/15 07:39:25;;;;;;;26.10;8.57;;;;;;;11.15;35.38;99118.16;4951841;28;20043;-73
2022/04/15 07:41:52;;;;;;;24.13;5.68;;;;;;;11.18;35.09;99126.59;4970447;28;20062;-72
2022/04/15 07:44:19;;;;;;;15.43;4.65;;;;;;;11.15;35.13;99116.25;4971611;28;20153;-72
2022/04/15 07:46:46;;;;;;;27.80;7.87;;;;;;;11.35;35.33;99108.84;4971705;28;20392;-73
2022/04/15 07:49:13;;;;;;;19.92;6.05;;;;;;;11.59;35.08;99121.63;4969453;28;20054;-71
2022/04/15 07:51:39;;;;;;;27.40;10.82;;;;;;;11.81;34.89;99117.44;4951178;29;20051;-70
2022/04/15 07:54:06;;;;;;;34.42;13.40;;;;;;;11.93;34.57;99115.03;4951547;29;20098;-73
2022/04/15 07:56:36;;;;;;;26.95;10.07;;;;;;;11.98;34.17;99116.88;4951649;28;20050;-72
2022/04/15 07:59:03;;;;;;;24.60;7.82;;;;;;;11.99;33.92;99113.03;4963138;28;20125;-73
2022/04/15 08:01:30;;;;;;;25.42;7.70;;;;;;;11.96;33.47;99108.16;4937569;28;20063;-72
2022/04/15 08:03:57;;;;;;;15.82;5.03;;;;;;;11.78;33.16;99107.88;4957657;28;20059;-72
2022/04/15 08:06:24;;;;;;;35.63;14.00;;;;;;;11.75;33.13;99120.28;4971833;28;20078;-72
2022/04/15 08:08:54;;;;;;;29.55;13.57;;;;;;;11.93;32.97;99115.03;4954555;28;20507;-73
2022/04/15 08:11:20;;;;;;;20.45;8.27;;;;;;;11.99;32.71;99116.56;4939813;28;20067;-72
2022/04/15 08:13:47;;;;;;;51.88;20.45;;;;;;;12.01;32.79;99114.38;4935953;28;20065;-73
2022/04/15 08:16:14;;;;;;;23.98;7.60;;;;;;;12.09;33.02;99118.34;4956544;28;20070;-71
2022/04/15 08:18:40;;;;;;;20.85;6.45;;;;;;;12.10;32.95;99106.28;4952682;28;20055;-72
2022/04/15 08:21:07;;;;;;;29.52;11.50;;;;;;;12.08;32.89;99107.69;4967359;28;20059;-73
2022/04/15 08:23:33;;;;;;;35.35;10.55;;;;;;;12.13;32.99;99111.16;4972174;28;20066;-73
2022/04/15 08:25:59;;;;;;;20.42;4.95;;;;;;;12.11;33.03;99099.69;4970605;28;20055;-74
2022/04/15 08:28:25;;;;;;;16.63;4.53;;;;;;;12.24;32.81;99110.97;4953727;28;20059;-73
2022/04/15 08:30:52;;;;;;;13.68;3.72;;;;;;;12.13;32.55;99104.84;4967323;28;20058;-73
2022/04/15 08:33:34;;;;;;;20.50;4.45;;;;;;;12.08;32.16;99113.19;4956155;28;20081;-72
2022/04/15 08:36:27;;;;;;;27.17;4.30;;;;;;;11.89;32.57;99101.13;4970706;28;20106;-71
2022/04/15 08:38:53;;;;;;;24.58;4.47;;;;;;;11.99;32.88;99099.34;4968373;28;20113;-73
2022/04/15 08:41:21;;;;;;;12.73;4.20;;;;;;;12.00;32.78;99090.78;4969387;28;20118;-73
2022/04/15 08:43:49;;;;;;;18.95;4.95;;;;;;;12.05;32.10;99098.16;4950792;28;20062;-73
2022/04/15 08:46:16;;;;;;;23.88;4.10;;;;;;;12.16;32.32;99096.03;4934913;29;20132;-73
2022/04/15 08:48:43;;;;;;;14.05;3.90;;;;;;;12.33;32.23;99085.31;4960343;28;20051;-73
2022/04/15 08:51:11;;;;;;;24.38;7.57;;;;;;;12.44;31.94;99090.56;4940424;28;20114;-72
2022/04/15 08:53:37;;;;;;;;;;;;;;;12.50;31.90;99086.63;4966916;28;20530;-72
2022/04/15 08:56:05;;;;;;;24.25;6.95;;;;;;;12.56;32.11;99081.81;4916085;29;19964;-73
2022/04/15 08:58:31;;;;;;;33.20;8.38;;;;;;;12.57;31.92;99089.75;4968260;28;20046;-73
2022/04/15 09:00:57;;;;;;;24.13;5.22;;;;;;;12.47;32.25;99087.22;4939483;28;20065;-72
2022/04/15 09:03:24;;;;;;;18.27;6.07;;;;;;;12.44;32.34;99087.81;4945681;28;20050;-73
2022/04/15 09:05:51;;;;;;;17.88;4.03;;;;;;;12.55;32.27;99077.47;4972552;28;20055;-72
2022/04/15 09:08:18;;;;;;;12.60;3.17;;;;;;;12.60;32.26;99080.13;4954694;28;20066;-72
2022/04/15 09:10:54;;;;;;;13.73;3.75;;;;;;;12.78;32.43;99081.09;4974065;28;20560;-72
2022/04/15 09:13:23;;;;;;;16.13;3.25;;;;;;;12.89;32.47;99082.50;4974231;28;20054;-73
2022/04/15 09:15:49;;;;;;;14.52;4.07;;;;;;;12.98;32.98;99076.31;4955509;28;20485;-73
2022/04/15 09:18:28;;;;;;;18.85;3.45;;;;;;;13.08;32.58;99075.25;4973360;28;20067;-72
2022/04/15 09:21:15;;;;;;;17.60;3.80;;;;;;;13.09;32.60;99074.13;4937368;28;20063;-73
2022/04/15 09:23:44;;;;;;;17.25;3.97;;;;;;;13.18;32.92;99075.84;4969227;28;20055;-73
2022/04/15 09:26:10;;;;;;;22.73;3.85;;;;;;;13.19;33.47;99080.19;4973894;28;20145;-73
2022/04/15 09:28:37;;;;;;;34.43;5.20;;;;;;;12.77;32.93;99063.84;4973609;28;20077;-73
2022/04/15 09:31:03;;;;;;;12.32;2.65;;;;;;;12.59;32.63;99087.53;4971693;28;20053;-74
2022/04/15 09:33:29;;;;;;;8.65;2.70;;;;;;;12.29;32.86;99067.03;4956316;28;20423;-74
2022/04/15 09:35:56;;;;;;;11.75;2.70;;;;;;;11.97;33.18;99074.19;4956623;28;20077;-73
2022/04/15 09:38:41;;;;;;;10.93;2.53;;;;;;;12.01;33.67;99083.41;4973918;28;20145;-73
2022/04/15 09:41:19;;;;;;;10.93;2.03;;;;;;;11.95;33.97;99077.19;4953387;28;20070;-73
2022/04/15 09:43:49;;;;;;;12.40;2.40;;;;;;;11.77;34.31;99046.00;4956484;28;20069;-76
2022/04/15 09:46:15;;;;;;;8.82;2.35;;;;;;;11.91;34.21;99084.41;4973179;28;20062;-73
2022/04/15 09:48:57;;;;;;;9.27;2.65;;;;;;;11.97;34.35;99074.97;4972642;28;20074;-79
2022/04/15 09:51:24;;;;;;;14.45;3.60;;;;;;;12.02;34.37;99074.09;4970639;28;20193;-72
2022/04/15 09:53:55;;;;;;;11.65;3.00;;;;;;;11.85;34.35;99069.97;4970667;28;20431;-72
2022/04/15 09:56:23;;;;;;;14.90;3.25;;;;;;;11.85;34.34;99069.16;4945843;28;20063;-73
2022/04/15 09:58:54;;;;;;;10.68;3.20;;;;;;;11.94;34.37;99061.88;4971539;28;20054;-72
2022/04/15 10:01:26;;;;;;;14.13;3.38;;;;;;;12.09;34.58;99068.22;4972502;28;20081;-72
2022/04/15 10:03:55;;;;;;;17.33;3.60;;;;;;;12.24;35.06;99065.19;4971239;28;20074;-72
2022/04/15 10:06:22;;;;;;;12.15;3.83;;;;;;;12.35;35.23;99068.53;4968188;28;20074;-72
2022/04/15 10:08:51;;;;;;;19.60;3.70;;;;;;;12.36;35.26;99058.41;4972777;28;20145;-72
2022/04/15 10:11:19;;;;;;;23.45;4.40;;;;;;;12.45;35.22;99057.38;4972553;28;20062;-72
2022/04/15 10:13:45;;;;;;;12.57;3.70;;;;;;;12.40;35.44;99053.94;4970802;28;20054;-73
2022/04/15 10:16:13;;;;;;;14.68;3.47;;;;;;;12.45;35.38;99073.81;4971874;28;20050;-72
2022/04/15 10:18:40;;;;;;;16.38;3.95;;;;;;;12.45;34.80;99071.09;4958981;28;20201;-73
2022/04/15 10:21:08;;;;;;;15.25;4.18;;;;;;;12.38;34.77;99073.41;4966482;28;20065;-72
2022/04/15 10:23:35;;;;;;;15.90;3.92;;;;;;;12.41;34.28;99069.25;4969094;28;20134;-72
2022/04/15 10:26:03;;;;;;;14.80;3.92;;;;;;;12.38;34.36;99064.38;4954831;28;20519;-72
2022/04/15 10:28:39;;;;;;;14.93;4.05;;;;;;;12.39;34.53;99069.53;4970364;28;20065;-73
2022/04/15 10:31:11;;;;;;;20.70;4.40;;;;;;;12.40;34.97;99067.63;4969344;28;20153;-73
2022/04/15 10:33:41;;;;;;;10.40;3.60;;;;;;;12.38;35.01;99069.88;4970756;28;20310;-73
2022/04/15 10:36:13;;;;;;;12.48;3.22;;;;;;;12.31;34.78;99065.59;4970979;28;20054;-72
2022/04/15 10:39:14;;;;;;;9.30;3.15;;;;;;;12.23;34.56;99080.00;4968650;28;20452;-73
2022/04/15 10:41:56;;;;;;;8.15;2.70;;;;;;;12.09;34.42;99068.22;4954938;28;20507;-72
2022/04/15 10:44:31;;;;;;;14.20;2.92;;;;;;;11.92;34.52;99050.41;4972449;28;20154;-73
2022/04/15 10:47:10;;;;;;;10.48;3.28;;;;;;;12.01;34.55;99062.31;4972314;28;20054;-73
2022/04/15 10:49:39;;;;;;;9.18;3.15;;;;;;;12.05;34.87;99066.09;4974869;28;20514;-72
2022/04/15 10:52:17;;;;;;;11.82;3.22;;;;;;;12.09;35.02;99060.00;4975217;28;20062;-72
2022/04/15 10:54:48;;;;;;;13.27;3.20;;;;;;;12.13;35.28;99047.31;4964793;28;20050;-72
2022/04/15 10:57:48;;;;;;;14.43;3.20;;;;;;;12.22;35.58;99059.22;4955498;28;20059;-72
2022/04/15 11:03:23;;;;;;;21.38;3.60;;;;;;;12.37;35.93;99051.81;4972165;28;20077;-70
2022/04/15 11:05:55;;;;;;;15.65;3.00;;;;;;;12.41;36.20;99050.88;4954570;28;20058;-72
2022/04/15 11:08:23;;;;;;;21.23;3.83;;;;;;;12.45;36.47;99046.41;4970202;28;20078;-72
2022/04/15 11:11:04;;;;;;;20.52;3.08;;;;;;;12.49;36.03;99041.13;4969661;28;20054;-73
2022/04/15 11:13:33;;;;;;;15.20;3.35;;;;;;;12.74;37.61;99033.47;4953666;28;20066;-73
2022/04/15 11:16:02;;;;;;;20.15;4.03;;;;;;;12.78;37.59;99037.22;4971267;28;20047;-74
2022/04/15 11:18:51;;;;;;;22.17;4.10;;;;;;;12.79;36.94;99030.59;4989411;28;20537;-73
2022/04/15 11:21:19;;;;;;;15.18;3.58;;;;;;;12.83;36.59;99030.81;4951611;29;20102;-74
2022/04/15 11:23:47;;;;;;;21.58;3.95;;;;;;;12.85;36.17;99029.38;4952970;28;20154;-75
2022/04/15 11:26:14;;;;;;;20.20;3.85;;;;;;;12.86;35.89;99022.78;4935874;29;20102;-74
2022/04/15 11:28:42;;;;;;;;;;;;;;;12.97;35.47;99014.31;4965375;28;20145;-75
2022/04/15 11:31:18;;;;;;;;;;;;;;;13.04;35.11;99022.91;4959778;28;20446;-76
2022/04/15 11:33:44;;;;;;;17.30;4.05;;;;;;;13.18;34.78;99011.88;4952843;28;19932;-76
2022/04/15 11:36:10;;;;;;;20.40;4.00;;;;;;;13.29;34.51;99012.47;4952503;28;20059;-75